sensor_id;sensor_type;location;lat;lon;timestamp;P1;durP1;ratioP1;P2;durP2;ratioP2
13425;SDS011;6785;57.918;12.530;2024-01-07T00:00:32;9.07;;;4.40;;
13425;SDS011;6785;57.918;12.530;2024-01-07T00:02:58;10.37;;;4.97;;
13425;SDS011;6785;57.918;12.530;2024-01-07T00:05:25;6.90;;;4.33;;
13425;SDS011;6785;57.918;12.530;2024-01-07T00:07:52;9.00;;;4.57;;
13425;SDS011;6785;57.918;12.530;2024-01-07T00:10:18;6.53;;;4.40;;
13425;SDS011;6785;57.918;12.530;2024-01-07T00:12:45;9.13;;;4.47;;
13425;SDS011;6785;57.918;12.530;2024-01-07T00:15:13;11.07;;;4.63;;
13425;SDS011;6785;57.918;12.530;2024-01-07T00:17:41;9.50;;;5.07;;
13425;SDS011;6785;57.918;12.530;2024-01-07T00:20:08;11.97;;;4.87;;
13425;SDS011;6785;57.918;12.530;2024-01-07T00:22:35;7.00;;;4.27;;
13425;SDS011;6785;57.918;12.530;2024-01-07T00:25:02;8.70;;;4.47;;
13425;SDS011;6785;57.918;12.530;2024-01-07T00:27:29;6.37;;;3.93;;
13425;SDS011;6785;57.918;12.530;2024-01-07T00:29:56;7.97;;;4.83;;
13425;SDS011;6785;57.918;12.530;2024-01-07T00:32:22;10.40;;;4.70;;
13425;SDS011;6785;57.918;12.530;2024-01-07T00:34:52;8.47;;;4.23;;
13425;SDS011;6785;57.918;12.530;2024-01-07T00:37:19;7.70;;;4.73;;
13425;SDS011;6785;57.918;12.530;2024-01-07T00:39:45;7.33;;;4.53;;
13425;SDS011;6785;57.918;12.530;2024-01-07T00:42:12;7.40;;;4.37;;
13425;SDS011;6785;57.918;12.530;2024-01-07T00:44:39;7.67;;;4.00;;
13425;SDS011;6785;57.918;12.530;2024-01-07T00:47:05;6.43;;;4.40;;
13425;SDS011;6785;57.918;12.530;2024-01-07T00:49:32;9.43;;;4.80;;
13425;SDS011;6785;57.918;12.530;2024-01-07T00:52:00;6.63;;;4.30;;
13425;SDS011;6785;57.918;12.530;2024-01-07T00:54:27;8.30;;;4.73;;
13425;SDS011;6785;57.918;12.530;2024-01-07T00:56:53;7.13;;;4.57;;
13425;SDS011;6785;57.918;12.530;2024-01-07T00:59:20;6.53;;;4.17;;
13425;SDS011;6785;57.918;12.530;2024-01-07T01:01:47;10.17;;;4.23;;
13425;SDS011;6785;57.918;12.530;2024-01-07T01:04:13;7.00;;;4.20;;
13425;SDS011;6785;57.918;12.530;2024-01-07T01:06:40;8.90;;;4.80;;
13425;SDS011;6785;57.918;12.530;2024-01-07T01:09:08;9.00;;;4.27;;
13425;SDS011;6785;57.918;12.530;2024-01-07T01:11:35;7.50;;;5.10;;
13425;SDS011;6785;57.918;12.530;2024-01-07T01:14:01;8.03;;;4.40;;
13425;SDS011;6785;57.918;12.530;2024-01-07T01:16:28;11.30;;;6.27;;
13425;SDS011;6785;57.918;12.530;2024-01-07T01:18:55;9.63;;;5.50;;
13425;SDS011;6785;57.918;12.530;2024-01-07T01:21:21;9.97;;;5.50;;
13425;SDS011;6785;57.918;12.530;2024-01-07T01:23:48;8.17;;;5.03;;
13425;SDS011;6785;57.918;12.530;2024-01-07T01:26:16;9.90;;;4.97;;
13425;SDS011;6785;57.918;12.530;2024-01-07T01:28:43;10.13;;;5.33;;
13425;SDS011;6785;57.918;12.530;2024-01-07T01:31:12;8.17;;;4.97;;
13425;SDS011;6785;57.918;12.530;2024-01-07T01:33:39;10.00;;;4.80;;
13425;SDS011;6785;57.918;12.530;2024-01-07T01:36:06;8.07;;;5.00;;
13425;SDS011;6785;57.918;12.530;2024-01-07T01:38:34;10.00;;;5.50;;
13425;SDS011;6785;57.918;12.530;2024-01-07T01:41:00;8.63;;;4.90;;
13425;SDS011;6785;57.918;12.530;2024-01-07T01:43:29;8.87;;;4.67;;
13425;SDS011;6785;57.918;12.530;2024-01-07T01:45:56;8.70;;;4.23;;
13425;SDS011;6785;57.918;12.530;2024-01-07T01:48:23;7.60;;;3.40;;
13425;SDS011;6785;57.918;12.530;2024-01-07T01:50:53;6.63;;;4.07;;
13425;SDS011;6785;57.918;12.530;2024-01-07T01:53:23;7.27;;;4.63;;
13425;SDS011;6785;57.918;12.530;2024-01-07T01:55:50;7.93;;;4.37;;
13425;SDS011;6785;57.918;12.530;2024-01-07T01:58:17;10.17;;;4.37;;
13425;SDS011;6785;57.918;12.530;2024-01-07T02:00:46;8.67;;;3.83;;
13425;SDS011;6785;57.918;12.530;2024-01-07T02:03:13;8.67;;;4.40;;
13425;SDS011;6785;57.918;12.530;2024-01-07T02:05:40;8.80;;;4.67;;
13425;SDS011;6785;57.918;12.530;2024-01-07T02:08:06;6.73;;;4.47;;
13425;SDS011;6785;57.918;12.530;2024-01-07T02:10:33;8.33;;;4.60;;
13425;SDS011;6785;57.918;12.530;2024-01-07T02:13:01;8.37;;;4.40;;
13425;SDS011;6785;57.918;12.530;2024-01-07T02:15:28;8.60;;;4.57;;
13425;SDS011;6785;57.918;12.530;2024-01-07T02:17:56;9.43;;;5.20;;
13425;SDS011;6785;57.918;12.530;2024-01-07T02:20:23;8.37;;;4.30;;
13425;SDS011;6785;57.918;12.530;2024-01-07T02:22:50;16.37;;;4.80;;
13425;SDS011;6785;57.918;12.530;2024-01-07T02:25:18;10.10;;;5.03;;
13425;SDS011;6785;57.918;12.530;2024-01-07T02:27:45;22.47;;;6.63;;
13425;SDS011;6785;57.918;12.530;2024-01-07T02:30:12;11.90;;;5.57;;
13425;SDS011;6785;57.918;12.530;2024-01-07T02:32:39;10.47;;;5.60;;
13425;SDS011;6785;57.918;12.530;2024-01-07T02:35:06;11.50;;;5.60;;
13425;SDS011;6785;57.918;12.530;2024-01-07T02:37:33;19.70;;;5.23;;
13425;SDS011;6785;57.918;12.530;2024-01-07T02:40:00;17.87;;;5.10;;
13425;SDS011;6785;57.918;12.530;2024-01-07T02:42:28;29.43;;;6.20;;
13425;SDS011;6785;57.918;12.530;2024-01-07T02:44:54;15.77;;;5.50;;
13425;SDS011;6785;57.918;12.530;2024-01-07T02:47:21;18.70;;;6.33;;
13425;SDS011;6785;57.918;12.530;2024-01-07T02:49:48;13.20;;;6.13;;
13425;SDS011;6785;57.918;12.530;2024-01-07T02:52:15;18.30;;;6.73;;
13425;SDS011;6785;57.918;12.530;2024-01-07T02:54:41;21.40;;;6.37;;
13425;SDS011;6785;57.918;12.530;2024-01-07T02:57:07;13.83;;;6.30;;
13425;SDS011;6785;57.918;12.530;2024-01-07T02:59:35;24.20;;;6.60;;
13425;SDS011;6785;57.918;12.530;2024-01-07T03:02:02;17.60;;;5.60;;
13425;SDS011;6785;57.918;12.530;2024-01-07T03:04:29;14.83;;;5.57;;
13425;SDS011;6785;57.918;12.530;2024-01-07T03:06:55;13.43;;;5.67;;
13425;SDS011;6785;57.918;12.530;2024-01-07T03:09:22;13.33;;;6.20;;
13425;SDS011;6785;57.918;12.530;2024-01-07T03:11:49;11.20;;;6.23;;
13425;SDS011;6785;57.918;12.530;2024-01-07T03:14:15;15.60;;;7.17;;
13425;SDS011;6785;57.918;12.530;2024-01-07T03:16:46;11.50;;;5.73;;
13425;SDS011;6785;57.918;12.530;2024-01-07T03:19:13;16.53;;;6.73;;
13425;SDS011;6785;57.918;12.530;2024-01-07T03:21:40;14.57;;;5.97;;
13425;SDS011;6785;57.918;12.530;2024-01-07T03:24:06;16.03;;;6.67;;
13425;SDS011;6785;57.918;12.530;2024-01-07T03:26:33;13.10;;;5.77;;
13425;SDS011;6785;57.918;12.530;2024-01-07T03:29:00;15.57;;;6.47;;
13425;SDS011;6785;57.918;12.530;2024-01-07T03:31:27;13.10;;;5.60;;
13425;SDS011;6785;57.918;12.530;2024-01-07T03:33:55;11.73;;;6.17;;
13425;SDS011;6785;57.918;12.530;2024-01-07T03:36:22;16.30;;;5.80;;
13425;SDS011;6785;57.918;12.530;2024-01-07T03:38:49;17.83;;;6.60;;
13425;SDS011;6785;57.918;12.530;2024-01-07T03:41:18;25.57;;;6.97;;
13425;SDS011;6785;57.918;12.530;2024-01-07T03:43:46;13.70;;;5.20;;
13425;SDS011;6785;57.918;12.530;2024-01-07T03:46:13;24.47;;;6.93;;
13425;SDS011;6785;57.918;12.530;2024-01-07T03:48:40;17.30;;;5.90;;
13425;SDS011;6785;57.918;12.530;2024-01-07T03:51:09;13.67;;;6.70;;
13425;SDS011;6785;57.918;12.530;2024-01-07T03:53:35;13.73;;;5.70;;
13425;SDS011;6785;57.918;12.530;2024-01-07T03:56:02;13.63;;;6.27;;
13425;SDS011;6785;57.918;12.530;2024-01-07T03:58:29;17.13;;;6.27;;
13425;SDS011;6785;57.918;12.530;2024-01-07T04:00:56;14.50;;;5.90;;
13425;SDS011;6785;57.918;12.530;2024-01-07T04:03:22;12.30;;;6.23;;
13425;SDS011;6785;57.918;12.530;2024-01-07T04:05:49;13.27;;;5.80;;
13425;SDS011;6785;57.918;12.530;2024-01-07T04:08:17;24.60;;;6.77;;
13425;SDS011;6785;57.918;12.530;2024-01-07T04:10:44;23.80;;;5.87;;
13425;SDS011;6785;57.918;12.530;2024-01-07T04:13:10;13.03;;;5.60;;
13425;SDS011;6785;57.918;12.530;2024-01-07T04:15:37;11.20;;;4.90;;
13425;SDS011;6785;57.918;12.530;2024-01-07T04:18:04;16.00;;;6.33;;
13425;SDS011;6785;57.918;12.530;2024-01-07T04:20:31;12.37;;;5.50;;
13425;SDS011;6785;57.918;12.530;2024-01-07T04:22:58;9.97;;;5.17;;
13425;SDS011;6785;57.918;12.530;2024-01-07T04:25:26;13.00;;;6.30;;
13425;SDS011;6785;57.918;12.530;2024-01-07T04:27:52;13.00;;;5.67;;
13425;SDS011;6785;57.918;12.530;2024-01-07T04:30:19;12.57;;;6.37;;
13425;SDS011;6785;57.918;12.530;2024-01-07T04:32:46;12.57;;;5.50;;
13425;SDS011;6785;57.918;12.530;2024-01-07T04:35:13;10.83;;;5.80;;
13425;SDS011;6785;57.918;12.530;2024-01-07T04:37:39;12.43;;;6.10;;
13425;SDS011;6785;57.918;12.530;2024-01-07T04:40:06;11.07;;;5.30;;
13425;SDS011;6785;57.918;12.530;2024-01-07T04:42:35;11.30;;;5.30;;
13425;SDS011;6785;57.918;12.530;2024-01-07T04:45:02;11.10;;;6.37;;
13425;SDS011;6785;57.918;12.530;2024-01-07T04:47:30;14.10;;;5.30;;
13425;SDS011;6785;57.918;12.530;2024-01-07T04:49:59;11.97;;;5.70;;
13425;SDS011;6785;57.918;12.530;2024-01-07T04:52:25;10.10;;;5.60;;
13425;SDS011;6785;57.918;12.530;2024-01-07T04:54:52;16.97;;;5.67;;
13425;SDS011;6785;57.918;12.530;2024-01-07T04:57:19;10.33;;;5.03;;
13425;SDS011;6785;57.918;12.530;2024-01-07T04:59:50;13.73;;;5.50;;
13425;SDS011;6785;57.918;12.530;2024-01-07T05:02:17;41.63;;;6.40;;
13425;SDS011;6785;57.918;12.530;2024-01-07T05:04:44;19.57;;;5.63;;
13425;SDS011;6785;57.918;12.530;2024-01-07T05:07:10;12.17;;;6.13;;
13425;SDS011;6785;57.918;12.530;2024-01-07T05:09:38;10.20;;;5.40;;
13425;SDS011;6785;57.918;12.530;2024-01-07T05:12:05;11.33;;;5.27;;
13425;SDS011;6785;57.918;12.530;2024-01-07T05:14:32;13.50;;;6.37;;
13425;SDS011;6785;57.918;12.530;2024-01-07T05:17:00;10.23;;;5.23;;
13425;SDS011;6785;57.918;12.530;2024-01-07T05:19:27;11.40;;;5.73;;
13425;SDS011;6785;57.918;12.530;2024-01-07T05:21:54;10.20;;;5.67;;
13425;SDS011;6785;57.918;12.530;2024-01-07T05:24:21;13.03;;;6.00;;
13425;SDS011;6785;57.918;12.530;2024-01-07T05:26:48;13.07;;;5.50;;
13425;SDS011;6785;57.918;12.530;2024-01-07T05:29:14;11.07;;;5.90;;
13425;SDS011;6785;57.918;12.530;2024-01-07T05:31:41;11.03;;;5.77;;
13425;SDS011;6785;57.918;12.530;2024-01-07T05:34:09;11.17;;;5.00;;
13425;SDS011;6785;57.918;12.530;2024-01-07T05:36:36;12.23;;;6.20;;
13425;SDS011;6785;57.918;12.530;2024-01-07T05:39:03;11.40;;;5.47;;
13425;SDS011;6785;57.918;12.530;2024-01-07T05:41:31;11.13;;;6.13;;
13425;SDS011;6785;57.918;12.530;2024-01-07T05:43:58;13.40;;;6.03;;
13425;SDS011;6785;57.918;12.530;2024-01-07T05:46:25;11.90;;;5.43;;
13425;SDS011;6785;57.918;12.530;2024-01-07T05:48:52;9.40;;;5.23;;
13425;SDS011;6785;57.918;12.530;2024-01-07T05:51:20;10.93;;;5.43;;
13425;SDS011;6785;57.918;12.530;2024-01-07T05:53:46;15.27;;;7.03;;
13425;SDS011;6785;57.918;12.530;2024-01-07T05:56:13;12.57;;;5.80;;
13425;SDS011;6785;57.918;12.530;2024-01-07T05:58:40;11.33;;;5.47;;
13425;SDS011;6785;57.918;12.530;2024-01-07T06:01:07;12.17;;;6.53;;
13425;SDS011;6785;57.918;12.530;2024-01-07T06:03:34;12.57;;;6.37;;
13425;SDS011;6785;57.918;12.530;2024-01-07T06:06:01;13.83;;;5.93;;
13425;SDS011;6785;57.918;12.530;2024-01-07T06:08:29;11.90;;;5.80;;
13425;SDS011;6785;57.918;12.530;2024-01-07T06:10:56;14.53;;;6.00;;
13425;SDS011;6785;57.918;12.530;2024-01-07T06:13:23;10.97;;;5.93;;
13425;SDS011;6785;57.918;12.530;2024-01-07T06:15:49;13.90;;;5.93;;
13425;SDS011;6785;57.918;12.530;2024-01-07T06:18:16;12.77;;;6.03;;
13425;SDS011;6785;57.918;12.530;2024-01-07T06:20:43;15.50;;;7.03;;
13425;SDS011;6785;57.918;12.530;2024-01-07T06:23:10;13.00;;;6.47;;
13425;SDS011;6785;57.918;12.530;2024-01-07T06:25:38;13.33;;;6.27;;
13425;SDS011;6785;57.918;12.530;2024-01-07T06:28:05;9.73;;;5.33;;
13425;SDS011;6785;57.918;12.530;2024-01-07T06:30:32;12.93;;;6.50;;
13425;SDS011;6785;57.918;12.530;2024-01-07T06:32:58;12.03;;;5.67;;
13425;SDS011;6785;57.918;12.530;2024-01-07T06:35:25;12.10;;;6.10;;
13425;SDS011;6785;57.918;12.530;2024-01-07T06:37:52;12.93;;;6.17;;
13425;SDS011;6785;57.918;12.530;2024-01-07T06:40:19;13.93;;;6.70;;
13425;SDS011;6785;57.918;12.530;2024-01-07T06:42:47;12.60;;;6.13;;
13425;SDS011;6785;57.918;12.530;2024-01-07T06:45:14;12.70;;;6.67;;
13425;SDS011;6785;57.918;12.530;2024-01-07T06:47:41;15.10;;;6.03;;
13425;SDS011;6785;57.918;12.530;2024-01-07T06:50:08;15.30;;;6.33;;
13425;SDS011;6785;57.918;12.530;2024-01-07T06:52:36;13.07;;;5.93;;
13425;SDS011;6785;57.918;12.530;2024-01-07T06:55:02;13.47;;;6.67;;
13425;SDS011;6785;57.918;12.530;2024-01-07T06:57:29;14.17;;;5.67;;
13425;SDS011;6785;57.918;12.530;2024-01-07T06:59:58;10.73;;;5.83;;
13425;SDS011;6785;57.918;12.530;2024-01-07T07:02:24;10.33;;;6.10;;
13425;SDS011;6785;57.918;12.530;2024-01-07T07:04:51;13.80;;;6.17;;
13425;SDS011;6785;57.918;12.530;2024-01-07T07:07:18;13.03;;;5.80;;
13425;SDS011;6785;57.918;12.530;2024-01-07T07:09:45;13.53;;;6.00;;
13425;SDS011;6785;57.918;12.530;2024-01-07T07:12:11;71.50;;;8.77;;
13425;SDS011;6785;57.918;12.530;2024-01-07T07:14:38;13.13;;;5.60;;
13425;SDS011;6785;57.918;12.530;2024-01-07T07:17:06;17.00;;;6.43;;
13425;SDS011;6785;57.918;12.530;2024-01-07T07:19:33;10.93;;;5.47;;
13425;SDS011;6785;57.918;12.530;2024-01-07T07:22:00;12.43;;;5.63;;
13425;SDS011;6785;57.918;12.530;2024-01-07T07:24:27;9.97;;;5.47;;
13425;SDS011;6785;57.918;12.530;2024-01-07T07:26:53;13.10;;;5.70;;
13425;SDS011;6785;57.918;12.530;2024-01-07T07:29:20;16.73;;;5.73;;
13425;SDS011;6785;57.918;12.530;2024-01-07T07:31:47;8.17;;;5.13;;
13425;SDS011;6785;57.918;12.530;2024-01-07T07:34:15;13.47;;;7.23;;
13425;SDS011;6785;57.918;12.530;2024-01-07T07:36:41;7.73;;;4.20;;
13425;SDS011;6785;57.918;12.530;2024-01-07T07:39:10;14.17;;;5.70;;
13425;SDS011;6785;57.918;12.530;2024-01-07T07:41:36;10.13;;;5.53;;
13425;SDS011;6785;57.918;12.530;2024-01-07T07:44:03;12.00;;;5.53;;
13425;SDS011;6785;57.918;12.530;2024-01-07T07:46:30;14.53;;;6.13;;
13425;SDS011;6785;57.918;12.530;2024-01-07T07:48:57;13.40;;;5.97;;
13425;SDS011;6785;57.918;12.530;2024-01-07T07:51:25;9.33;;;5.10;;
13425;SDS011;6785;57.918;12.530;2024-01-07T07:53:51;9.37;;;5.10;;
13425;SDS011;6785;57.918;12.530;2024-01-07T07:56:18;10.33;;;4.83;;
13425;SDS011;6785;57.918;12.530;2024-01-07T07:58:45;6.93;;;4.53;;
13425;SDS011;6785;57.918;12.530;2024-01-07T08:01:12;6.93;;;4.50;;
13425;SDS011;6785;57.918;12.530;2024-01-07T08:03:39;8.93;;;5.20;;
13425;SDS011;6785;57.918;12.530;2024-01-07T08:06:05;17.87;;;5.47;;
13425;SDS011;6785;57.918;12.530;2024-01-07T08:08:34;20.70;;;6.07;;
13425;SDS011;6785;57.918;12.530;2024-01-07T08:11:00;80.13;;;7.63;;
13425;SDS011;6785;57.918;12.530;2024-01-07T08:13:27;11.00;;;5.30;;
13425;SDS011;6785;57.918;12.530;2024-01-07T08:15:54;9.97;;;5.13;;
13425;SDS011;6785;57.918;12.530;2024-01-07T08:18:21;9.27;;;5.03;;
13425;SDS011;6785;57.918;12.530;2024-01-07T08:20:47;9.27;;;5.83;;
13425;SDS011;6785;57.918;12.530;2024-01-07T08:23:15;9.17;;;5.07;;
13425;SDS011;6785;57.918;12.530;2024-01-07T08:25:43;10.57;;;5.47;;
13425;SDS011;6785;57.918;12.530;2024-01-07T08:28:10;10.07;;;5.83;;
13425;SDS011;6785;57.918;12.530;2024-01-07T08:30:37;9.47;;;5.13;;
13425;SDS011;6785;57.918;12.530;2024-01-07T08:33:04;13.37;;;5.77;;
13425;SDS011;6785;57.918;12.530;2024-01-07T08:35:31;10.30;;;5.20;;
13425;SDS011;6785;57.918;12.530;2024-01-07T08:37:57;10.30;;;5.73;;
13425;SDS011;6785;57.918;12.530;2024-01-07T08:40:24;11.23;;;5.53;;
13425;SDS011;6785;57.918;12.530;2024-01-07T08:42:53;9.10;;;4.80;;
13425;SDS011;6785;57.918;12.530;2024-01-07T08:45:19;9.00;;;4.77;;
13425;SDS011;6785;57.918;12.530;2024-01-07T08:47:46;8.93;;;4.70;;
13425;SDS011;6785;57.918;12.530;2024-01-07T08:50:13;12.50;;;5.97;;
13425;SDS011;6785;57.918;12.530;2024-01-07T08:52:40;11.57;;;5.10;;
13425;SDS011;6785;57.918;12.530;2024-01-07T08:55:07;7.97;;;4.93;;
13425;SDS011;6785;57.918;12.530;2024-01-07T08:57:35;12.07;;;5.03;;
13425;SDS011;6785;57.918;12.530;2024-01-07T09:00:03;13.53;;;6.17;;
13425;SDS011;6785;57.918;12.530;2024-01-07T09:02:32;13.60;;;6.90;;
13425;SDS011;6785;57.918;12.530;2024-01-07T09:04:59;10.70;;;4.97;;
13425;SDS011;6785;57.918;12.530;2024-01-07T09:07:26;10.30;;;5.73;;
13425;SDS011;6785;57.918;12.530;2024-01-07T09:09:53;11.90;;;5.57;;
13425;SDS011;6785;57.918;12.530;2024-01-07T09:12:24;9.07;;;4.97;;
13425;SDS011;6785;57.918;12.530;2024-01-07T09:14:51;9.93;;;4.93;;
13425;SDS011;6785;57.918;12.530;2024-01-07T09:17:19;10.33;;;6.03;;
13425;SDS011;6785;57.918;12.530;2024-01-07T09:19:46;10.33;;;5.40;;
13425;SDS011;6785;57.918;12.530;2024-01-07T09:22:13;11.43;;;5.13;;
13425;SDS011;6785;57.918;12.530;2024-01-07T09:24:40;14.20;;;5.73;;
13425;SDS011;6785;57.918;12.530;2024-01-07T09:27:06;13.50;;;5.93;;
13425;SDS011;6785;57.918;12.530;2024-01-07T09:29:33;13.90;;;6.63;;
13425;SDS011;6785;57.918;12.530;2024-01-07T09:32:05;14.27;;;6.17;;
13425;SDS011;6785;57.918;12.530;2024-01-07T09:34:37;15.13;;;6.83;;
13425;SDS011;6785;57.918;12.530;2024-01-07T09:37:04;11.17;;;5.37;;
13425;SDS011;6785;57.918;12.530;2024-01-07T09:39:31;13.57;;;5.73;;
13425;SDS011;6785;57.918;12.530;2024-01-07T09:41:57;10.03;;;5.57;;
13425;SDS011;6785;57.918;12.530;2024-01-07T09:44:25;16.13;;;6.77;;
13425;SDS011;6785;57.918;12.530;2024-01-07T09:46:52;16.20;;;5.90;;
13425;SDS011;6785;57.918;12.530;2024-01-07T09:49:20;15.23;;;6.13;;
13425;SDS011;6785;57.918;12.530;2024-01-07T09:51:49;13.93;;;6.00;;
13425;SDS011;6785;57.918;12.530;2024-01-07T09:54:18;12.47;;;6.70;;
13425;SDS011;6785;57.918;12.530;2024-01-07T09:56:48;17.97;;;5.63;;
13425;SDS011;6785;57.918;12.530;2024-01-07T09:59:20;15.70;;;7.00;;
13425;SDS011;6785;57.918;12.530;2024-01-07T10:01:47;16.57;;;7.23;;
13425;SDS011;6785;57.918;12.530;2024-01-07T10:04:15;13.90;;;6.90;;
13425;SDS011;6785;57.918;12.530;2024-01-07T10:06:42;19.70;;;6.73;;
13425;SDS011;6785;57.918;12.530;2024-01-07T10:09:10;16.10;;;6.10;;
13425;SDS011;6785;57.918;12.530;2024-01-07T10:11:38;15.53;;;6.40;;
13425;SDS011;6785;57.918;12.530;2024-01-07T10:14:05;13.93;;;5.83;;
13425;SDS011;6785;57.918;12.530;2024-01-07T10:16:32;15.83;;;6.50;;
13425;SDS011;6785;57.918;12.530;2024-01-07T10:18:59;14.77;;;6.03;;
13425;SDS011;6785;57.918;12.530;2024-01-07T10:21:26;14.60;;;6.13;;
13425;SDS011;6785;57.918;12.530;2024-01-07T10:24:06;13.57;;;7.07;;
13425;SDS011;6785;57.918;12.530;2024-01-07T10:26:36;11.23;;;5.93;;
13425;SDS011;6785;57.918;12.530;2024-01-07T10:29:03;13.17;;;6.77;;
13425;SDS011;6785;57.918;12.530;2024-01-07T10:31:31;11.63;;;6.30;;
13425;SDS011;6785;57.918;12.530;2024-01-07T10:33:58;12.63;;;5.83;;
13425;SDS011;6785;57.918;12.530;2024-01-07T10:36:28;14.73;;;6.47;;
13425;SDS011;6785;57.918;12.530;2024-01-07T10:38:57;11.77;;;5.57;;
13425;SDS011;6785;57.918;12.530;2024-01-07T10:41:23;17.17;;;6.53;;
13425;SDS011;6785;57.918;12.530;2024-01-07T10:43:54;17.47;;;6.20;;
13425;SDS011;6785;57.918;12.530;2024-01-07T10:46:21;16.70;;;6.40;;
13425;SDS011;6785;57.918;12.530;2024-01-07T10:48:53;12.80;;;6.80;;
13425;SDS011;6785;57.918;12.530;2024-01-07T10:51:21;13.13;;;6.30;;
13425;SDS011;6785;57.918;12.530;2024-01-07T10:53:51;11.67;;;5.70;;
13425;SDS011;6785;57.918;12.530;2024-01-07T10:56:20;17.40;;;6.03;;
13425;SDS011;6785;57.918;12.530;2024-01-07T10:58:50;13.33;;;5.67;;
13425;SDS011;6785;57.918;12.530;2024-01-07T11:01:20;13.10;;;5.60;;
13425;SDS011;6785;57.918;12.530;2024-01-07T11:03:49;14.03;;;6.13;;
13425;SDS011;6785;57.918;12.530;2024-01-07T11:06:26;17.87;;;6.73;;
13425;SDS011;6785;57.918;12.530;2024-01-07T11:08:58;15.27;;;5.70;;
13425;SDS011;6785;57.918;12.530;2024-01-07T11:11:35;8.83;;;5.27;;
13425;SDS011;6785;57.918;12.530;2024-01-07T11:14:07;12.43;;;6.17;;
13425;SDS011;6785;57.918;12.530;2024-01-07T11:17:01;12.63;;;5.80;;
13425;SDS011;6785;57.918;12.530;2024-01-07T11:19:28;17.67;;;5.80;;
13425;SDS011;6785;57.918;12.530;2024-01-07T11:22:08;22.80;;;6.40;;
13425;SDS011;6785;57.918;12.530;2024-01-07T11:24:49;15.17;;;6.00;;
13425;SDS011;6785;57.918;12.530;2024-01-07T11:27:16;19.67;;;7.47;;
13425;SDS011;6785;57.918;12.530;2024-01-07T11:29:42;16.37;;;6.67;;
13425;SDS011;6785;57.918;12.530;2024-01-07T11:32:13;15.23;;;6.73;;
13425;SDS011;6785;57.918;12.530;2024-01-07T11:34:43;13.20;;;5.93;;
13425;SDS011;6785;57.918;12.530;2024-01-07T11:37:14;12.57;;;5.63;;
13425;SDS011;6785;57.918;12.530;2024-01-07T11:39:41;20.33;;;6.50;;
13425;SDS011;6785;57.918;12.530;2024-01-07T11:42:09;16.73;;;7.23;;
13425;SDS011;6785;57.918;12.530;2024-01-07T11:44:37;20.00;;;6.43;;
13425;SDS011;6785;57.918;12.530;2024-01-07T11:47:04;16.67;;;6.30;;
13425;SDS011;6785;57.918;12.530;2024-01-07T11:49:33;21.70;;;6.53;;
13425;SDS011;6785;57.918;12.530;2024-01-07T11:51:59;18.20;;;8.37;;
13425;SDS011;6785;57.918;12.530;2024-01-07T11:54:27;13.83;;;6.63;;
13425;SDS011;6785;57.918;12.530;2024-01-07T11:56:55;20.60;;;8.37;;
13425;SDS011;6785;57.918;12.530;2024-01-07T11:59:42;19.80;;;7.83;;
13425;SDS011;6785;57.918;12.530;2024-01-07T12:02:09;19.70;;;7.63;;
13425;SDS011;6785;57.918;12.530;2024-01-07T12:04:41;20.67;;;8.23;;
13425;SDS011;6785;57.918;12.530;2024-01-07T12:07:07;16.83;;;7.67;;
13425;SDS011;6785;57.918;12.530;2024-01-07T12:09:39;17.27;;;7.20;;
13425;SDS011;6785;57.918;12.530;2024-01-07T12:12:06;17.17;;;6.57;;
13425;SDS011;6785;57.918;12.530;2024-01-07T12:14:33;19.27;;;8.07;;
13425;SDS011;6785;57.918;12.530;2024-01-07T12:17:00;16.97;;;7.20;;
13425;SDS011;6785;57.918;12.530;2024-01-07T12:19:28;19.43;;;6.83;;
13425;SDS011;6785;57.918;12.530;2024-01-07T12:22:02;14.23;;;6.20;;
13425;SDS011;6785;57.918;12.530;2024-01-07T12:24:29;17.43;;;6.90;;
13425;SDS011;6785;57.918;12.530;2024-01-07T12:26:56;11.60;;;6.03;;
13425;SDS011;6785;57.918;12.530;2024-01-07T12:29:22;11.20;;;6.23;;
13425;SDS011;6785;57.918;12.530;2024-01-07T12:31:51;17.10;;;6.57;;
13425;SDS011;6785;57.918;12.530;2024-01-07T12:34:17;18.50;;;7.70;;
13425;SDS011;6785;57.918;12.530;2024-01-07T12:36:48;9.57;;;5.77;;
13425;SDS011;6785;57.918;12.530;2024-01-07T12:39:17;14.33;;;6.13;;
13425;SDS011;6785;57.918;12.530;2024-01-07T12:41:44;13.53;;;6.10;;
13425;SDS011;6785;57.918;12.530;2024-01-07T12:44:12;10.47;;;5.50;;
13425;SDS011;6785;57.918;12.530;2024-01-07T12:46:39;11.30;;;5.30;;
13425;SDS011;6785;57.918;12.530;2024-01-07T12:49:06;11.80;;;5.37;;
13425;SDS011;6785;57.918;12.530;2024-01-07T12:51:32;11.10;;;5.77;;
13425;SDS011;6785;57.918;12.530;2024-01-07T12:53:59;10.60;;;5.67;;
13425;SDS011;6785;57.918;12.530;2024-01-07T12:56:29;12.07;;;5.83;;
13425;SDS011;6785;57.918;12.530;2024-01-07T12:58:56;8.97;;;5.63;;
13425;SDS011;6785;57.918;12.530;2024-01-07T13:01:23;13.33;;;5.90;;
13425;SDS011;6785;57.918;12.530;2024-01-07T13:03:53;21.67;;;7.00;;
13425;SDS011;6785;57.918;12.530;2024-01-07T13:06:20;10.00;;;6.13;;
13425;SDS011;6785;57.918;12.530;2024-01-07T13:08:46;17.13;;;6.57;;
13425;SDS011;6785;57.918;12.530;2024-01-07T13:11:13;13.23;;;5.97;;
13425;SDS011;6785;57.918;12.530;2024-01-07T13:13:43;12.47;;;5.83;;
13425;SDS011;6785;57.918;12.530;2024-01-07T13:16:09;12.23;;;5.67;;
13425;SDS011;6785;57.918;12.530;2024-01-07T13:18:37;15.93;;;5.97;;
13425;SDS011;6785;57.918;12.530;2024-01-07T13:21:04;13.97;;;6.30;;
13425;SDS011;6785;57.918;12.530;2024-01-07T13:23:31;17.60;;;6.37;;
13425;SDS011;6785;57.918;12.530;2024-01-07T13:25:58;13.20;;;6.10;;
13425;SDS011;6785;57.918;12.530;2024-01-07T13:28:27;16.13;;;6.80;;
13425;SDS011;6785;57.918;12.530;2024-01-07T13:30:55;12.03;;;6.23;;
13425;SDS011;6785;57.918;12.530;2024-01-07T13:33:22;14.97;;;6.50;;
13425;SDS011;6785;57.918;12.530;2024-01-07T13:35:49;15.87;;;5.97;;
13425;SDS011;6785;57.918;12.530;2024-01-07T13:38:15;10.47;;;5.73;;
13425;SDS011;6785;57.918;12.530;2024-01-07T13:40:44;13.83;;;6.07;;
13425;SDS011;6785;57.918;12.530;2024-01-07T13:43:11;15.07;;;6.53;;
13425;SDS011;6785;57.918;12.530;2024-01-07T13:45:38;11.20;;;6.13;;
13425;SDS011;6785;57.918;12.530;2024-01-07T13:48:07;10.47;;;5.57;;
13425;SDS011;6785;57.918;12.530;2024-01-07T13:50:35;12.70;;;6.03;;
13425;SDS011;6785;57.918;12.530;2024-01-07T13:53:01;11.33;;;6.30;;
13425;SDS011;6785;57.918;12.530;2024-01-07T13:55:28;11.27;;;6.07;;
13425;SDS011;6785;57.918;12.530;2024-01-07T13:57:55;14.07;;;6.27;;
13425;SDS011;6785;57.918;12.530;2024-01-07T14:00:22;22.47;;;6.10;;
13425;SDS011;6785;57.918;12.530;2024-01-07T14:02:49;11.57;;;6.03;;
13425;SDS011;6785;57.918;12.530;2024-01-07T14:05:17;12.90;;;6.23;;
13425;SDS011;6785;57.918;12.530;2024-01-07T14:07:44;55.17;;;7.70;;
13425;SDS011;6785;57.918;12.530;2024-01-07T14:10:11;18.40;;;6.33;;
13425;SDS011;6785;57.918;12.530;2024-01-07T14:12:37;16.17;;;6.80;;
13425;SDS011;6785;57.918;12.530;2024-01-07T14:15:08;13.47;;;5.60;;
13425;SDS011;6785;57.918;12.530;2024-01-07T14:20:21;11.33;;;5.77;;
13425;SDS011;6785;57.918;12.530;2024-01-07T14:22:47;10.63;;;5.83;;
13425;SDS011;6785;57.918;12.530;2024-01-07T14:25:29;12.20;;;5.93;;
13425;SDS011;6785;57.918;12.530;2024-01-07T14:27:57;14.73;;;6.10;;
13425;SDS011;6785;57.918;12.530;2024-01-07T14:30:24;12.83;;;6.67;;
13425;SDS011;6785;57.918;12.530;2024-01-07T14:32:51;12.63;;;5.97;;
13425;SDS011;6785;57.918;12.530;2024-01-07T14:35:18;14.27;;;6.30;;
13425;SDS011;6785;57.918;12.530;2024-01-07T14:37:46;15.70;;;6.03;;
13425;SDS011;6785;57.918;12.530;2024-01-07T14:40:13;10.37;;;4.97;;
13425;SDS011;6785;57.918;12.530;2024-01-07T14:42:40;15.10;;;6.47;;